Relevés horaires Weissfluhjoch (Suisse)


Relevés horaires à Weissfluhjoch - Mercredi 25 Sept. 2002
Heure UTC1 Température [°C] Vent [km/h] Hum. [%] Pres.4 [hPa] Visi. [Km] Nébu. [octa] Préc.5 [mm] Cond.
2m. Res. Ros. Dir.2 Vit. Moy. Raf.3
23:00 -8.4 -16.6 -9.5 N 24.1 -- -- 92 700 -- -- -- --
22:00 -8.4 -15.9 -9.5 NNO 20.4 -- -- 92 700 -- -- -- --
21:00 -8.4 -15.2 -9.5 N 16.7 42.6 -- 92 700(1.1/3h) -- -- -- --
20:00 -9.2 -16.2 -10.3 N 16.7 -- -- 92 700 -- -- -- --
19:00 -8.8 -19.4 -9.9 N 42.6 -- -- 92 700 -- -- -- --
18:00 -8.8 -14.7 -9.9 N 13.0 -- -- 92 700(1.0/3h) 0 -- 2/12h
Légère neige continue
17:00 -9.1 -9.1 -10.2 NE 3.7 -- -- 92 700 -- -- -- --
16:00 -8.8 -16 -9.9 N 18.5 -- -- 92 700 -- -- -- --
15:00 -9.1 -17.5 -10.2 NNO 24.1 -- -- 92 700 -- -- -- --
14:00 -9.0 -15.9 -10.1 N 16.7 -- -- 92 700 -- -- -- --
13:00 -9.1 -17.1 -10.2 N 22.2 -- -- 92 700 -- -- -- --
12:00 -9.1 -16.8 -10.4 NNO 20.4 -- -- 90 700(0.7/3h) 0 -- 2/6h
--
11:00 -9.1 -16.4 -10.3 NNO 18.5 -- -- 91 700 -- -- -- --
10:00 -9.1 -16.8 -10.2 N 20.4 -- -- 92 700 -- -- -- --
09:00 -9.2 -15.2 -10.3 N 13.0 -- -- 92 700 -- -- -- --
08:00 -9.0 -17 -10.1 N 22.2 -- -- 92 700(1.1/3h) -- -- -- --
07:00 -9.1 -16.8 -10.4 N 20.4 -- -- 90 700 -- -- -- --
06:00 -9.0 -14.4 -10.1 N 11.1 -- -- 92 700(0.3/3h) 0.5 -- 0.8/12h
Neige modérée continue
05:00 -8.9 -8.9 -10.0 NNO 0.0 -- -- 92 700 -- -- -- --
04:00 -8.6 -8.6 -9.8 NNO 0.0 -- -- 91 700 -- -- -- --
03:00 -8.5 -14.4 -9.5 N 13.0 -- -- 92 700 -- -- -- --
02:00 -8.4 -8.4 -9.5 N 1.9 -- -- 92 700 -- -- -- --
01:00 -8.4 -8.4 -9.5 NNO 0.0 -- -- 92 700 -- -- -- --
00:00 -8.1 -8.1 -9.1 NNO 0.0 -- -- 92 700(-0.1/3h) -- -- -- --

1 Coordinated Universal Time. Actuellement il est 05:00 locale et 03:00 UTC.

2 Le vent souffle depuis la direction indiquée vers la direction oposée.

3 Les rafales max. sont disponible 40 min après l'heure du relevé.

4 Pour les stations d'altitude (plus de 600m) le géopotentiel du niveau le plus proche de la pression obligatoire est indiqué.

5 Les stations disposant d'un diffuseur peuvent indiquer "trace". Cela signifie que des précipitations ont touchés le sol mais que la quantité est inférieure à 0.1 mm.

Copyright

Les données affichées sur cette page sont la propriété exclusive de Météo Suisse.

Récapitulatif de la journée
Température [°C] Vent [km/h] Ensoleillement4 [h] Precipitations totale5 [mm] Pression [Hpa]
Min1 Max.2 Moy.3 Max. Min Max.
-9.0 -8.8 42.6 -- 0 h 0 min 2.4 700.0 700.0

1 Température minimale relevée entre 18:00 UTC la veille et 18:00 UTC le jour donné.

2 Température maximale relevée entre 06:00 UTC le jour donné et 06:00 UTC le lendemain.

3 Vent moyen de la journée basé sur les relevés horaires.

4 Ensoleillement en heures relevé entre 06:00 UTC la veille et 06:00 UTC le jour donné.

5 Précipitations totales tombées entre 06:00 UTC la jour donné et 06:00 UTC le lendemain.

Graphiques horaires